createdAt,value
2018-11-07T00:03:31.022Z,28.90
2018-11-07T00:08:34.641Z,26.83
2018-11-07T00:13:38.569Z,28.20
2018-11-07T00:18:42.305Z,30.30
2018-11-07T00:23:45.912Z,26.90
2018-11-07T00:28:49.524Z,30.23
2018-11-07T00:33:52.880Z,29.53
2018-11-07T00:38:56.287Z,38.20
2018-11-07T00:43:59.757Z,41.07
2018-11-07T00:49:03.427Z,32.00
2018-11-07T00:54:07.038Z,29.73
2018-11-07T00:59:10.665Z,36.80
2018-11-07T01:04:14.706Z,35.30
2018-11-07T01:09:19.276Z,29.30
2018-11-07T01:14:22.625Z,29.30
2018-11-07T01:19:26.023Z,30.37
2018-11-07T01:24:30.221Z,35.50
2018-11-07T01:29:33.995Z,32.47
2018-11-07T01:34:37.659Z,29.60
2018-11-07T01:39:41.238Z,33.60
2018-11-07T01:44:45.451Z,30.77
2018-11-07T01:49:48.806Z,37.10
2018-11-07T01:54:52.710Z,36.17
2018-11-07T01:59:56.054Z,38.57
2018-11-07T02:04:59.700Z,39.10
2018-11-07T02:10:03.153Z,35.77
2018-11-07T02:15:07.413Z,40.30
2018-11-07T02:20:12.036Z,40.60
2018-11-07T02:25:15.995Z,39.10
2018-11-07T02:30:19.712Z,37.30
2018-11-07T02:35:23.599Z,38.20
2018-11-07T02:40:27.091Z,39.00
2018-11-07T02:45:31.289Z,39.70
2018-11-07T02:50:34.697Z,40.93
2018-11-07T02:55:38.501Z,40.07
2018-11-07T03:00:42.516Z,40.73
2018-11-07T03:05:46.033Z,39.40
2018-11-07T03:10:50.114Z,39.53
2018-11-07T03:15:53.578Z,43.53
2018-11-07T03:20:57.381Z,41.23
2018-11-07T03:26:00.836Z,42.13
2018-11-07T03:31:04.939Z,34.80
2018-11-07T03:36:08.985Z,41.30
2018-11-07T03:41:13.449Z,43.00
2018-11-07T03:46:17.678Z,36.83
2018-11-07T03:51:21.613Z,43.10
2018-11-07T03:56:25.623Z,43.37
2018-11-07T04:01:29.438Z,39.37
2018-11-07T04:06:33.303Z,46.73
2018-11-07T04:11:38.454Z,42.90
2018-11-07T04:16:41.985Z,40.43
2018-11-07T04:21:46.477Z,56.10
2018-11-07T04:26:50.257Z,42.50
2018-11-07T04:31:54.210Z,41.40
2018-11-07T04:36:59.274Z,42.30
2018-11-07T04:42:02.958Z,38.90
2018-11-07T04:47:07.549Z,45.30
2018-11-07T04:52:11.752Z,42.60
2018-11-07T04:57:15.601Z,40.80
2018-11-07T05:02:20.013Z,44.43
2018-11-07T05:07:23.868Z,44.07
2018-11-07T05:12:27.461Z,40.53
2018-11-07T05:17:31.071Z,49.03
2018-11-07T05:22:34.962Z,48.60
2018-11-07T05:27:39.163Z,45.47
2018-11-07T05:32:43.033Z,52.00
2018-11-07T05:37:47.745Z,44.07
2018-11-07T05:42:51.140Z,43.83
2018-11-07T05:47:55.510Z,38.27
2018-11-07T05:52:59.093Z,47.40
2018-11-07T05:58:02.432Z,40.30
2018-11-07T06:03:06.233Z,40.90
2018-11-07T06:08:09.990Z,39.77
2018-11-07T06:13:13.879Z,41.33
2018-11-07T06:18:17.589Z,43.03
2018-11-07T06:23:21.125Z,43.70
2018-11-07T06:28:25.013Z,43.77
2018-11-07T06:33:28.954Z,48.53
2018-11-07T06:38:32.783Z,44.33
2018-11-07T06:43:38.829Z,40.40
2018-11-07T06:48:43.189Z,43.97
2018-11-07T06:53:47.003Z,41.17
2018-11-07T06:58:51.443Z,37.13
2018-11-07T07:03:56.454Z,40.20
2018-11-07T07:09:00.264Z,41.87
2018-11-07T07:14:04.363Z,44.27
2018-11-07T07:19:09.264Z,40.83
2018-11-07T07:24:13.438Z,42.87
2018-11-07T07:29:17.416Z,44.93
2018-11-07T07:34:21.033Z,38.83
2018-11-07T07:39:24.684Z,39.03
2018-11-07T07:44:28.400Z,43.50
2018-11-07T07:49:32.183Z,53.73
2018-11-07T07:54:36.720Z,40.67
2018-11-07T07:59:41.677Z,41.40
2018-11-07T08:04:45.605Z,41.80
2018-11-07T08:09:49.415Z,41.80
2018-11-07T08:14:53.101Z,37.20
2018-11-07T08:19:57.422Z,41.27
2018-11-07T08:25:01.173Z,39.93
2018-11-07T08:30:06.282Z,44.00
2018-11-07T08:35:11.180Z,43.20
2018-11-07T08:40:16.727Z,44.37
2018-11-07T08:45:20.702Z,42.80
2018-11-07T08:50:24.483Z,59.23
2018-11-07T08:55:28.409Z,38.77
2018-11-07T09:00:32.675Z,49.50
2018-11-07T09:05:36.111Z,52.10
2018-11-07T09:10:39.474Z,43.07
2018-11-07T09:15:43.034Z,42.00
2018-11-07T09:20:47.324Z,41.03
2018-11-07T09:25:51.510Z,36.17
2018-11-07T09:30:55.746Z,35.10
2018-11-07T09:35:59.967Z,42.90
2018-11-07T09:41:06.491Z,38.50
2018-11-07T09:46:10.875Z,46.77
2018-11-07T09:51:15.219Z,41.80
2018-11-07T09:56:20.306Z,43.93
2018-11-07T10:01:26.948Z,54.13
2018-11-07T10:06:30.720Z,52.27
2018-11-07T10:11:36.484Z,49.47
2018-11-07T10:16:40.368Z,44.97
2018-11-07T10:21:44.210Z,44.57
2018-11-07T10:26:47.779Z,44.00
2018-11-07T10:31:51.437Z,48.13
2018-11-07T10:36:55.482Z,39.60
2018-11-07T10:41:59.177Z,43.93
2018-11-07T10:47:02.860Z,39.63
2018-11-07T10:52:06.811Z,37.77
2018-11-07T10:57:10.133Z,37.43
2018-11-07T11:02:19.250Z,31.40
2018-11-07T11:07:23.334Z,33.60
2018-11-07T11:12:27.358Z,35.57
2018-11-07T11:17:31.630Z,30.73
2018-11-07T11:22:35.384Z,30.77
2018-11-07T11:27:39.627Z,33.37
2018-11-07T11:32:43.545Z,30.83
2018-11-07T11:37:47.425Z,29.40
2018-11-07T11:42:51.641Z,32.20
2018-11-07T11:47:55.526Z,30.00
2018-11-07T11:53:08.143Z,28.03
2018-11-07T11:59:19.423Z,26.47
2018-11-07T12:04:23.897Z,25.57
2018-11-07T12:09:34.970Z,27.20
2018-11-07T12:14:39.969Z,26.73
2018-11-07T12:19:43.834Z,27.47
2018-11-07T12:24:47.636Z,26.37
2018-11-07T12:29:51.415Z,28.47
2018-11-07T12:34:55.320Z,27.47
2018-11-07T12:40:01.060Z,29.10
2018-11-07T18:13:17.595Z,35.93
2018-11-07T18:18:21.004Z,24.47
2018-11-07T18:23:24.531Z,19.33
2018-11-07T18:28:35.904Z,20.23
2018-11-07T18:33:42.666Z,23.80
2018-11-07T18:38:46.361Z,20.60
2018-11-07T18:43:49.406Z,19.53
2018-11-07T18:48:52.614Z,20.40
2018-11-07T18:53:56.125Z,18.83
2018-11-07T18:58:59.775Z,17.80
2018-11-07T19:04:02.645Z,20.53
2018-11-07T19:09:07.319Z,18.70
2018-11-07T19:14:10.351Z,20.40
2018-11-07T19:19:13.929Z,18.63
2018-11-07T19:24:17.782Z,17.30
2018-11-07T19:29:21.036Z,18.50
2018-11-07T19:34:24.129Z,18.60
2018-11-07T19:39:31.154Z,18.57
2018-11-07T19:44:38.148Z,22.67
2018-11-07T19:49:41.424Z,18.10
2018-11-07T19:54:44.443Z,20.37
2018-11-07T19:59:48.205Z,18.60
2018-11-07T20:04:51.559Z,22.87
2018-11-07T20:09:54.795Z,19.40
2018-11-07T20:14:58.665Z,17.27
2018-11-07T20:20:01.852Z,17.63
2018-11-07T20:25:06.063Z,17.07
2018-11-07T20:30:11.091Z,17.80
2018-11-07T20:35:15.789Z,14.40
2018-11-07T20:40:24.899Z,16.57
2018-11-07T20:45:29.611Z,15.07
2018-11-07T20:50:32.828Z,16.17
2018-11-07T20:55:41.400Z,14.40
2018-11-07T21:00:45.574Z,15.80
2018-11-07T21:05:48.798Z,14.90
2018-11-07T21:10:51.750Z,14.00
2018-11-07T21:15:55.305Z,13.87
2018-11-07T21:20:58.741Z,16.17
2018-11-07T21:26:01.848Z,14.40
2018-11-07T21:31:04.905Z,17.60
2018-11-07T21:36:08.425Z,14.90
2018-11-07T21:41:11.869Z,13.07
2018-11-07T21:46:18.281Z,15.50
2018-11-07T21:51:23.242Z,13.50
2018-11-07T21:56:27.084Z,14.20
2018-11-07T22:01:30.059Z,12.90
2018-11-07T22:06:34.217Z,14.37
2018-11-07T22:11:39.973Z,13.50
2018-11-07T22:16:45.957Z,14.17
2018-11-07T22:21:49.225Z,14.57
2018-11-07T22:26:52.386Z,14.73
2018-11-07T22:31:55.350Z,14.63
2018-11-07T22:36:58.491Z,13.77
2018-11-07T22:42:07.705Z,14.40
2018-11-07T22:47:11.624Z,13.40
2018-11-07T22:52:14.886Z,14.00
2018-11-07T22:57:18.107Z,14.60
2018-11-07T23:02:21.550Z,15.17
2018-11-07T23:07:32.939Z,14.90
2018-11-07T23:12:37.042Z,14.67
2018-11-07T23:17:40.473Z,13.20
2018-11-07T23:22:44.180Z,14.60
2018-11-07T23:27:47.763Z,13.67
2018-11-07T23:32:51.058Z,14.43
2018-11-07T23:37:54.532Z,13.90
2018-11-07T23:42:58.679Z,14.50
2018-11-07T23:48:02.353Z,13.00
2018-11-07T23:53:06.453Z,14.53
2018-11-07T23:58:10.584Z,12.63
